Maersk Douglas — DCPL2 — position and weather

sailwx.info

Track history (hours):
 
Tides and Currents Weather Stations Pressure Air Temp Water Temp Dewpoint Dewpoint Depression Visibility Wind Speed Wind Dir Waves Ship Positions

Maersk Douglas

Last reported at 2016-Aug-29 19:34 UTC. Time now 2016-Aug-29 19:56 UTC.
Position N 53°33' E 009°55'.

Length 294.1 m; beam 32.2 m; draft 13.7 m.

Type: Tug. MMSI: 211710650.

Date/timePositionNaut miles runAvg speedWind from/ knotsBaromVisibWave heightAir tempDewpointWater temp
2016-Aug-29 19:34N 53°33' E 009°55'0 0.0
2016-Aug-29 18:33N 53°33' E 009°55'0 0.0
2016-Aug-29 17:33N 53°33' E 009°55'0 0.0
2016-Aug-29 16:33N 53°33' E 009°55'1 1.0
2016-Aug-29 15:34N 53°32' E 009°55'1 1.0
2016-Aug-29 14:33N 53°33' E 009°55'0 0.0
2016-Aug-29 13:33N 53°33' E 009°55'2 1.7
2016-Aug-29 12:33N 53°31' E 009°56'2 2.1
2016-Aug-29 11:34N 53°32' E 009°54'1 1.0
2016-Aug-29 10:34N 53°33' E 009°55'0 0.0
2016-Aug-29 09:34N 53°33' E 009°55'0 0.0
2016-Aug-29 08:34N 53°33' E 009°55'0 0.0
2016-Aug-29 07:33N 53°33' E 009°55'0 0.0
2016-Aug-29 06:33N 53°33' E 009°55'0 0.0
2016-Aug-29 05:34N 53°33' E 009°55'0 0.0
2016-Aug-29 04:34N 53°33' E 009°55'3 2.7
2016-Aug-29 03:33N 53°30' E 009°56'3 3.0
2016-Aug-29 02:34N 53°32' E 009°54'1 0.9
2016-Aug-29 01:33N 53°33' E 009°55'0 0.0
2016-Aug-29 00:33N 53°33' E 009°55'0 0.0
2016-Aug-28 23:34N 53°33' E 009°55'0 0.0
2016-Aug-28 22:33N 53°33' E 009°55'0 0.0
2016-Aug-28 21:33N 53°33' E 009°55'0 0.0
2016-Aug-28 20:33N 53°33' E 009°55'0 0.0
2016-Aug-28 19:33N 53°33' E 009°55'0 0.0
2016-Aug-28 18:33N 53°33' E 009°55'0 0.0
2016-Aug-28 17:34N 53°33' E 009°55'2 2.2
2016-Aug-28 16:33N 53°31' E 009°57'4 3.5
2016-Aug-28 15:33N 53°33' E 009°52'2 1.9
2016-Aug-28 14:33N 53°33' E 009°55'0 0.0
2016-Aug-28 13:33N 53°33' E 009°55'0 0.0
2016-Aug-28 12:33N 53°33' E 009°55'0 0.0
2016-Aug-28 11:33N 53°33' E 009°55'0 0.0
2016-Aug-28 10:33N 53°33' E 009°55'0 0.0
2016-Aug-28 09:33N 53°33' E 009°55'0 0.0
2016-Aug-28 08:33N 53°33' E 009°55'0 0.0
2016-Aug-28 07:33N 53°33' E 009°55'0 0.0
2016-Aug-28 06:33N 53°33' E 009°55'0 0.0
2016-Aug-28 05:33N 53°33' E 009°55'0 0.0
2016-Aug-28 04:33N 53°33' E 009°55'0 0.0
2016-Aug-28 03:33N 53°33' E 009°55'0 0.0
2016-Aug-28 02:33N 53°33' E 009°55'0 0.0
2016-Aug-28 01:34N 53°33' E 009°55'0 0.0
2016-Aug-28 00:33N 53°33' E 009°55'0 0.0
2016-Aug-27 23:34N 53°33' E 009°55'0 0.0
2016-Aug-27 22:33N 53°33' E 009°55'0 0.0
2016-Aug-27 21:33N 53°33' E 009°55'0 0.0
2016-Aug-27 20:33N 53°33' E 009°55'0 0.0
2016-Aug-27 19:33N 53°33' E 009°55'0 0.0
2016-Aug-27 18:33N 53°33' E 009°55'5 5.5
2016-Aug-27 17:33N 53°34' E 009°46'6 5.6
2016-Aug-27 16:33N 53°32' E 009°55'1 0.8
2016-Aug-27 15:33N 53°33' E 009°55'2 2.3
2016-Aug-27 14:33N 53°30' E 009°56'2 2.3
2016-Aug-27 13:33N 53°33' E 009°55'0 0.0
2016-Aug-27 12:33N 53°33' E 009°55'0 0.0
2016-Aug-27 11:33N 53°33' E 009°55'0 0.0
2016-Aug-27 10:34N 53°33' E 009°55'1 1.3
2016-Aug-27 09:33N 53°31' E 009°56'2 2.4
2016-Aug-27 08:33N 53°33' E 009°53'1 1.5
2016-Aug-27 07:33N 53°33' E 009°55'1 1.0
2016-Aug-27 06:34N 53°32' E 009°56'1 0.5
2016-Aug-27 04:33N 53°33' E 009°55'3 2.9
2016-Aug-27 03:33N 53°33' E 009°50'3 2.9
2016-Aug-27 02:33N 53°33' E 009°55'0 0.0
2016-Aug-27 01:33N 53°33' E 009°55'0 0.0
2016-Aug-27 00:33N 53°33' E 009°55'0 0.0
2016-Aug-26 23:33N 53°33' E 009°55'0 0.0
2016-Aug-26 22:33N 53°33' E 009°55'0 0.0
2016-Aug-26 21:34N 53°33' E 009°55'0 0.0
2016-Aug-26 20:33N 53°33' E 009°55'0 0.0
2016-Aug-26 19:33N 53°33' E 009°55'0 0.0
2016-Aug-26 18:33N 53°33' E 009°55'0 0.0
2016-Aug-26 17:34N 53°33' E 009°55'0 0.0
2016-Aug-26 16:33N 53°33' E 009°55'0 0.0
2016-Aug-26 15:33N 53°33' E 009°55'0 0.0
2016-Aug-26 14:33N 53°33' E 009°55'0 0.2
2016-Aug-26 13:33N 53°33' E 009°56'2 1.9
2016-Aug-26 12:34N 53°31' E 009°56'2 2.0
2016-Aug-26 11:33N 53°33' E 009°55'0 0.0
2016-Aug-26 10:33N 53°33' E 009°55'0 0.0
2016-Aug-26 09:33N 53°33' E 009°55'0 0.0
2016-Aug-26 08:33N 53°33' E 009°55'0 0.0
2016-Aug-26 07:33N 53°33' E 009°55'0 0.0
2016-Aug-26 06:34N 53°33' E 009°55'0 0.0
2016-Aug-26 04:33N 53°33' E 009°55'0 0.0
2016-Aug-26 02:33N 53°33' E 009°55'0 0.0
2016-Aug-26 01:33N 53°33' E 009°55'0 0.0
2016-Aug-26 00:33N 53°33' E 009°55'0 0.0
2016-Aug-25 23:33N 53°33' E 009°55'1 0.8
2016-Aug-25 22:33N 53°32' E 009°55'2 2.3
2016-Aug-25 21:33N 53°33' E 009°51'7 7.2
2016-Aug-25 20:33N 53°34' E 009°39'7 7.0
2016-Aug-25 19:33N 53°33' E 009°51'3 2.5
2016-Aug-25 18:33N 53°33' E 009°55'0 0.0
2016-Aug-25 17:33N 53°33' E 009°55'0 0.0
2016-Aug-25 16:33N 53°33' E 009°55'0 0.0
2016-Aug-25 15:34N 53°33' E 009°55'1 1.3
2016-Aug-25 14:33N 53°31' E 009°56'1 1.1
2016-Aug-25 13:33N 53°32' E 009°56'0 0.2
2016-Aug-25 12:33N 53°33' E 009°55'0 0.0
2016-Aug-25 11:33N 53°33' E 009°55'0 0.0
2016-Aug-25 10:33N 53°33' E 009°55'0 0.0
2016-Aug-25 09:33N 53°33' E 009°55'0 0.0
2016-Aug-25 08:33N 53°33' E 009°55'0 0.0
2016-Aug-25 07:33N 53°33' E 009°55'0 0.0
2016-Aug-25 06:33N 53°33' E 009°55'0 0.0
2016-Aug-25 04:33N 53°33' E 009°55'0 0.0
2016-Aug-25 03:33N 53°33' E 009°55'0 0.0
2016-Aug-25 02:33N 53°33' E 009°55'0 0.0
2016-Aug-25 01:33N 53°33' E 009°55'0 0.0
2016-Aug-25 00:33N 53°33' E 009°55'0 0.0
2016-Aug-24 23:33N 53°33' E 009°55'0 0.0
2016-Aug-24 22:33N 53°33' E 009°55'0 0.0
2016-Aug-24 21:33N 53°33' E 009°55'0 0.0
2016-Aug-24 20:33N 53°33' E 009°55'0 0.0
2016-Aug-24 19:33N 53°33' E 009°55'0 0.0
2016-Aug-24 18:34N 53°33' E 009°55'0 0.0
2016-Aug-24 17:33N 53°33' E 009°55'0 0.0
2016-Aug-24 16:34N 53°33' E 009°55'0 0.2
2016-Aug-24 15:33N 53°33' E 009°55'0 0.2
2016-Aug-24 14:33N 53°33' E 009°55'0 0.0
2016-Aug-24 13:33N 53°33' E 009°55'0 0.0
2016-Aug-24 12:33N 53°33' E 009°55'0 0.0
2016-Aug-24 11:34N 53°33' E 009°55'0 0.0
2016-Aug-24 10:33N 53°33' E 009°55'0 0.0
2016-Aug-24 09:33N 53°33' E 009°55'0 0.1
2016-Aug-24 08:33N 53°33' E 009°55'2 1.6
2016-Aug-24 07:33N 53°31' E 009°56'4 3.8
2016-Aug-24 06:33N 53°33' E 009°50'3 1.4
2016-Aug-24 04:33N 53°33' E 009°55'0 0.1
2016-Aug-24 03:33N 53°33' E 009°55'0 0.1
2016-Aug-24 02:33N 53°33' E 009°55'0 0.0
2016-Aug-24 01:33N 53°33' E 009°55'0 0.0
2016-Aug-24 00:33N 53°33' E 009°55'0 0.0
2016-Aug-23 23:34N 53°33' E 009°55'0 0.0
2016-Aug-23 22:33N 53°33' E 009°55'0 0.4
2016-Aug-23 21:34N 53°32' E 009°56'2 2.3
2016-Aug-23 20:33N 53°30' E 009°56'3 2.8
2016-Aug-23 19:33N 53°32' E 009°54'1 0.9
2016-Aug-23 18:33N 53°33' E 009°55'0 0.0
2016-Aug-23 17:33N 53°33' E 009°55'0 0.0
2016-Aug-23 16:33N 53°33' E 009°55'0 0.0
2016-Aug-23 15:33N 53°33' E 009°55'0 0.0
2016-Aug-23 14:33N 53°33' E 009°55'3 2.6
2016-Aug-23 13:33N 53°30' E 009°56'3 2.9
2016-Aug-23 12:33N 53°33' E 009°54'7 6.9
2016-Aug-23 11:34N 53°34' E 009°42'3 3.2
2016-Aug-23 10:34N 53°33' E 009°48'5 4.6
2016-Aug-23 09:34N 53°33' E 009°55'0 0.0
2016-Aug-23 08:34N 53°33' E 009°55'0 0.0
2016-Aug-23 07:34N 53°33' E 009°55'0 0.0
2016-Aug-23 06:34N 53°33' E 009°55'0 0.0
2016-Aug-23 05:34N 53°33' E 009°55'0 0.0
2016-Aug-23 04:34N 53°33' E 009°55'0 0.0
2016-Aug-23 03:33N 53°33' E 009°55'0 0.0
2016-Aug-23 02:34N 53°33' E 009°55'0 0.0
2016-Aug-23 01:34N 53°33' E 009°55'0 0.0
2016-Aug-23 00:34N 53°33' E 009°55'2 1.7
2016-Aug-22 23:34N 53°31' E 009°57'1 0.8
2016-Aug-22 22:34N 53°32' E 009°58'2 1.8
2016-Aug-22 21:34N 53°33' E 009°55'0 0.0
2016-Aug-22 20:34N 53°33' E 009°55'0 0.0
2016-Aug-22 19:34N 53°33' E 009°55'0 0.0
2016-Aug-22 18:34N 53°33' E 009°55'0 0.0
2016-Aug-22 17:34N 53°33' E 009°55'0 0.0
2016-Aug-22 16:34N 53°33' E 009°55'3 2.7
2016-Aug-22 15:34N 53°30' E 009°56'4 4.2
2016-Aug-22 14:34N 53°33' E 009°51'2 2.5
2016-Aug-22 13:34N 53°33' E 009°55'0 0.0
2016-Aug-22 12:33N 53°33' E 009°55'0 0.0
2016-Aug-22 11:34N 53°33' E 009°55'0 0.0
2016-Aug-22 10:34N 53°33' E 009°55'0 0.0
2016-Aug-22 09:33N 53°33' E 009°55'0 0.0
2016-Aug-22 08:34N 53°33' E 009°55'0 0.0
2016-Aug-22 07:34N 53°33' E 009°55'0 0.0
2016-Aug-22 06:34N 53°33' E 009°55'0 0.0
2016-Aug-22 05:34N 53°33' E 009°55'0 0.0
2016-Aug-22 04:34N 53°33' E 009°55'0 0.0
2016-Aug-22 03:34N 53°33' E 009°55'0 0.0
2016-Aug-22 02:34N 53°33' E 009°55'0 0.0
2016-Aug-22 01:34N 53°33' E 009°55'0 0.0
2016-Aug-22 00:34N 53°33' E 009°55'0 0.0
2016-Aug-21 23:34N 53°33' E 009°55'0 0.0
2016-Aug-21 22:34N 53°33' E 009°55'0 0.0
2016-Aug-21 21:34N 53°33' E 009°55'0 0.0
2016-Aug-21 20:34N 53°33' E 009°55'0 0.0
2016-Aug-21 19:34N 53°33' E 009°55'0 0.0
2016-Aug-21 18:34N 53°33' E 009°55'0 0.0
2016-Aug-21 17:34N 53°33' E 009°55'0 0.0
2016-Aug-21 16:33N 53°33' E 009°55'0 0.0
2016-Aug-21 15:34N 53°33' E 009°55'0 0.0
2016-Aug-21 14:34N 53°33' E 009°55'0 0.0
2016-Aug-21 13:33N 53°33' E 009°55'0 0.0
2016-Aug-21 12:34N 53°33' E 009°55'0 0.0
2016-Aug-21 11:34N 53°33' E 009°55'0 0.4
2016-Aug-21 10:34N 53°32' E 009°55'2 2.4
2016-Aug-21 09:34N 53°33' E 009°51'3 2.8
2016-Aug-21 08:34N 53°33' E 009°55'0 0.0
2016-Aug-21 07:34N 53°33' E 009°55'0 0.0
2016-Aug-21 06:34N 53°33' E 009°55'0 0.0
2016-Aug-21 05:34N 53°33' E 009°55'0 0.0
2016-Aug-21 04:34N 53°33' E 009°55'0 0.0
2016-Aug-21 03:34N 53°33' E 009°55'0 0.0
2016-Aug-21 02:34N 53°33' E 009°55'0 0.0
2016-Aug-21 01:34N 53°33' E 009°55'0 0.0
2016-Aug-21 00:33N 53°33' E 009°55'0 0.0
2016-Aug-20 23:34N 53°33' E 009°55'1 0.8
2016-Aug-20 22:34N 53°32' E 009°55'3 2.7
2016-Aug-20 21:34N 53°33' E 009°51'3 2.6
2016-Aug-20 20:34N 53°33' E 009°55'0 0.0
2016-Aug-20 19:34N 53°33' E 009°55'0 0.0
2016-Aug-20 18:34N 53°33' E 009°55'0 0.0
2016-Aug-20 17:34N 53°33' E 009°55'0 0.0
2016-Aug-20 16:34N 53°33' E 009°55'0 0.0
2016-Aug-20 15:34N 53°33' E 009°55'0 0.3
2016-Aug-20 14:34N 53°32' E 009°56'0 0.3
2016-Aug-20 13:34N 53°33' E 009°55'0 0.0
2016-Aug-20 12:33N 53°33' E 009°55'0 0.0
2016-Aug-20 11:34N 53°33' E 009°55'0 0.0
2016-Aug-20 10:34N 53°33' E 009°55'0 0.0
2016-Aug-20 09:34N 53°33' E 009°55'0 0.0
2016-Aug-20 08:34N 53°33' E 009°55'0 0.0
2016-Aug-20 07:34N 53°33' E 009°55'0 0.0
2016-Aug-20 06:34N 53°33' E 009°55'0 0.0
2016-Aug-20 05:33N 53°33' E 009°55'0 0.0
2016-Aug-20 04:34N 53°33' E 009°55'1 0.8
2016-Aug-20 03:33N 53°32' E 009°55'1 0.8
2016-Aug-20 02:34N 53°33' E 009°55'0 0.0
2016-Aug-20 01:33N 53°33' E 009°55'0 0.0
2016-Aug-20 00:34N 53°33' E 009°55'0 0.0
2016-Aug-19 23:33N 53°33' E 009°55'0 0.0
2016-Aug-19 22:33N 53°33' E 009°55'0 0.0
2016-Aug-19 21:34N 53°33' E 009°55'0 0.0
2016-Aug-19 20:33N 53°33' E 009°55'0 0.0
2016-Aug-19 19:34N 53°33' E 009°55'  
Track history (hours):
 
Tides and Currents Weather Stations Pressure Air Temp Water Temp Dewpoint Dewpoint Depression Visibility Wind Speed Wind Dir Waves Ship Positions

Maersk Douglas

Last reported at 2016-Aug-29 19:34 UTC. Time now 2016-Aug-29 19:56 UTC.
Position N 53°33' E 009°55'.

Length 294.1 m; beam 32.2 m; draft 13.7 m.

Type: Tug. MMSI: 211710650.

Date/timePositionNaut miles runAvg speedWind from/ knotsBaromVisibWave heightAir tempDewpointWater temp
2016-Aug-29 19:34N 53°33' E 009°55'0 0.0
2016-Aug-29 18:33N 53°33' E 009°55'0 0.0
2016-Aug-29 17:33N 53°33' E 009°55'0 0.0
2016-Aug-29 16:33N 53°33' E 009°55'1 1.0
2016-Aug-29 15:34N 53°32' E 009°55'1 1.0
2016-Aug-29 14:33N 53°33' E 009°55'0 0.0
2016-Aug-29 13:33N 53°33' E 009°55'2 1.7
2016-Aug-29 12:33N 53°31' E 009°56'2 2.1
2016-Aug-29 11:34N 53°32' E 009°54'1 1.0
2016-Aug-29 10:34N 53°33' E 009°55'0 0.0
2016-Aug-29 09:34N 53°33' E 009°55'0 0.0
2016-Aug-29 08:34N 53°33' E 009°55'0 0.0
2016-Aug-29 07:33N 53°33' E 009°55'0 0.0
2016-Aug-29 06:33N 53°33' E 009°55'0 0.0
2016-Aug-29 05:34N 53°33' E 009°55'0 0.0
2016-Aug-29 04:34N 53°33' E 009°55'3 2.7
2016-Aug-29 03:33N 53°30' E 009°56'3 3.0
2016-Aug-29 02:34N 53°32' E 009°54'1 0.9
2016-Aug-29 01:33N 53°33' E 009°55'0 0.0
2016-Aug-29 00:33N 53°33' E 009°55'0 0.0
2016-Aug-28 23:34N 53°33' E 009°55'0 0.0
2016-Aug-28 22:33N 53°33' E 009°55'0 0.0
2016-Aug-28 21:33N 53°33' E 009°55'0 0.0
2016-Aug-28 20:33N 53°33' E 009°55'0 0.0
2016-Aug-28 19:33N 53°33' E 009°55'0 0.0
2016-Aug-28 18:33N 53°33' E 009°55'0 0.0
2016-Aug-28 17:34N 53°33' E 009°55'2 2.2
2016-Aug-28 16:33N 53°31' E 009°57'4 3.5
2016-Aug-28 15:33N 53°33' E 009°52'2 1.9
2016-Aug-28 14:33N 53°33' E 009°55'0 0.0
2016-Aug-28 13:33N 53°33' E 009°55'0 0.0
2016-Aug-28 12:33N 53°33' E 009°55'0 0.0
2016-Aug-28 11:33N 53°33' E 009°55'0 0.0
2016-Aug-28 10:33N 53°33' E 009°55'0 0.0
2016-Aug-28 09:33N 53°33' E 009°55'0 0.0
2016-Aug-28 08:33N 53°33' E 009°55'0 0.0
2016-Aug-28 07:33N 53°33' E 009°55'0 0.0
2016-Aug-28 06:33N 53°33' E 009°55'0 0.0
2016-Aug-28 05:33N 53°33' E 009°55'0 0.0
2016-Aug-28 04:33N 53°33' E 009°55'0 0.0
2016-Aug-28 03:33N 53°33' E 009°55'0 0.0
2016-Aug-28 02:33N 53°33' E 009°55'0 0.0
2016-Aug-28 01:34N 53°33' E 009°55'0 0.0
2016-Aug-28 00:33N 53°33' E 009°55'0 0.0
2016-Aug-27 23:34N 53°33' E 009°55'0 0.0
2016-Aug-27 22:33N 53°33' E 009°55'0 0.0
2016-Aug-27 21:33N 53°33' E 009°55'0 0.0
2016-Aug-27 20:33N 53°33' E 009°55'0 0.0
2016-Aug-27 19:33N 53°33' E 009°55'0 0.0
2016-Aug-27 18:33N 53°33' E 009°55'5 5.5
2016-Aug-27 17:33N 53°34' E 009°46'6 5.6
2016-Aug-27 16:33N 53°32' E 009°55'1 0.8
2016-Aug-27 15:33N 53°33' E 009°55'2 2.3
2016-Aug-27 14:33N 53°30' E 009°56'2 2.3
2016-Aug-27 13:33N 53°33' E 009°55'0 0.0
2016-Aug-27 12:33N 53°33' E 009°55'0 0.0
2016-Aug-27 11:33N 53°33' E 009°55'0 0.0
2016-Aug-27 10:34N 53°33' E 009°55'1 1.3
2016-Aug-27 09:33N 53°31' E 009°56'2 2.4
2016-Aug-27 08:33N 53°33' E 009°53'1 1.5
2016-Aug-27 07:33N 53°33' E 009°55'1 1.0
2016-Aug-27 06:34N 53°32' E 009°56'1 0.5
2016-Aug-27 04:33N 53°33' E 009°55'3 2.9
2016-Aug-27 03:33N 53°33' E 009°50'3 2.9
2016-Aug-27 02:33N 53°33' E 009°55'0 0.0
2016-Aug-27 01:33N 53°33' E 009°55'0 0.0
2016-Aug-27 00:33N 53°33' E 009°55'0 0.0
2016-Aug-26 23:33N 53°33' E 009°55'0 0.0
2016-Aug-26 22:33N 53°33' E 009°55'0 0.0
2016-Aug-26 21:34N 53°33' E 009°55'0 0.0
2016-Aug-26 20:33N 53°33' E 009°55'0 0.0
2016-Aug-26 19:33N 53°33' E 009°55'0 0.0
2016-Aug-26 18:33N 53°33' E 009°55'0 0.0
2016-Aug-26 17:34N 53°33' E 009°55'0 0.0
2016-Aug-26 16:33N 53°33' E 009°55'0 0.0
2016-Aug-26 15:33N 53°33' E 009°55'0 0.0
2016-Aug-26 14:33N 53°33' E 009°55'0 0.2
2016-Aug-26 13:33N 53°33' E 009°56'2 1.9
2016-Aug-26 12:34N 53°31' E 009°56'2 2.0
2016-Aug-26 11:33N 53°33' E 009°55'0 0.0
2016-Aug-26 10:33N 53°33' E 009°55'0 0.0
2016-Aug-26 09:33N 53°33' E 009°55'0 0.0
2016-Aug-26 08:33N 53°33' E 009°55'0 0.0
2016-Aug-26 07:33N 53°33' E 009°55'0 0.0
2016-Aug-26 06:34N 53°33' E 009°55'0 0.0
2016-Aug-26 04:33N 53°33' E 009°55'0 0.0
2016-Aug-26 02:33N 53°33' E 009°55'0 0.0
2016-Aug-26 01:33N 53°33' E 009°55'0 0.0
2016-Aug-26 00:33N 53°33' E 009°55'0 0.0
2016-Aug-25 23:33N 53°33' E 009°55'1 0.8
2016-Aug-25 22:33N 53°32' E 009°55'2 2.3
2016-Aug-25 21:33N 53°33' E 009°51'7 7.2
2016-Aug-25 20:33N 53°34' E 009°39'7 7.0
2016-Aug-25 19:33N 53°33' E 009°51'3 2.5
2016-Aug-25 18:33N 53°33' E 009°55'0 0.0
2016-Aug-25 17:33N 53°33' E 009°55'0 0.0
2016-Aug-25 16:33N 53°33' E 009°55'0 0.0
2016-Aug-25 15:34N 53°33' E 009°55'1 1.3
2016-Aug-25 14:33N 53°31' E 009°56'1 1.1
2016-Aug-25 13:33N 53°32' E 009°56'0 0.2
2016-Aug-25 12:33N 53°33' E 009°55'0 0.0
2016-Aug-25 11:33N 53°33' E 009°55'0 0.0
2016-Aug-25 10:33N 53°33' E 009°55'0 0.0
2016-Aug-25 09:33N 53°33' E 009°55'0 0.0
2016-Aug-25 08:33N 53°33' E 009°55'0 0.0
2016-Aug-25 07:33N 53°33' E 009°55'0 0.0
2016-Aug-25 06:33N 53°33' E 009°55'0 0.0
2016-Aug-25 04:33N 53°33' E 009°55'0 0.0
2016-Aug-25 03:33N 53°33' E 009°55'0 0.0
2016-Aug-25 02:33N 53°33' E 009°55'0 0.0
2016-Aug-25 01:33N 53°33' E 009°55'0 0.0
2016-Aug-25 00:33N 53°33' E 009°55'0 0.0
2016-Aug-24 23:33N 53°33' E 009°55'0 0.0
2016-Aug-24 22:33N 53°33' E 009°55'0 0.0
2016-Aug-24 21:33N 53°33' E 009°55'0 0.0
2016-Aug-24 20:33N 53°33' E 009°55'0 0.0
2016-Aug-24 19:33N 53°33' E 009°55'0 0.0
2016-Aug-24 18:34N 53°33' E 009°55'0 0.0
2016-Aug-24 17:33N 53°33' E 009°55'0 0.0
2016-Aug-24 16:34N 53°33' E 009°55'0 0.2
2016-Aug-24 15:33N 53°33' E 009°55'0 0.2
2016-Aug-24 14:33N 53°33' E 009°55'0 0.0
2016-Aug-24 13:33N 53°33' E 009°55'0 0.0
2016-Aug-24 12:33N 53°33' E 009°55'0 0.0
2016-Aug-24 11:34N 53°33' E 009°55'0 0.0
2016-Aug-24 10:33N 53°33' E 009°55'0 0.0
2016-Aug-24 09:33N 53°33' E 009°55'0 0.1
2016-Aug-24 08:33N 53°33' E 009°55'2 1.6
2016-Aug-24 07:33N 53°31' E 009°56'4 3.8
2016-Aug-24 06:33N 53°33' E 009°50'3 1.4
2016-Aug-24 04:33N 53°33' E 009°55'0 0.1
2016-Aug-24 03:33N 53°33' E 009°55'0 0.1
2016-Aug-24 02:33N 53°33' E 009°55'0 0.0
2016-Aug-24 01:33N 53°33' E 009°55'0 0.0
2016-Aug-24 00:33N 53°33' E 009°55'0 0.0
2016-Aug-23 23:34N 53°33' E 009°55'0 0.0
2016-Aug-23 22:33N 53°33' E 009°55'0 0.4
2016-Aug-23 21:34N 53°32' E 009°56'2 2.3
2016-Aug-23 20:33N 53°30' E 009°56'3 2.8
2016-Aug-23 19:33N 53°32' E 009°54'1 0.9
2016-Aug-23 18:33N 53°33' E 009°55'0 0.0
2016-Aug-23 17:33N 53°33' E 009°55'0 0.0
2016-Aug-23 16:33N 53°33' E 009°55'0 0.0
2016-Aug-23 15:33N 53°33' E 009°55'0 0.0
2016-Aug-23 14:33N 53°33' E 009°55'3 2.6
2016-Aug-23 13:33N 53°30' E 009°56'3 2.9
2016-Aug-23 12:33N 53°33' E 009°54'7 6.9
2016-Aug-23 11:34N 53°34' E 009°42'3 3.2
2016-Aug-23 10:34N 53°33' E 009°48'5 4.6
2016-Aug-23 09:34N 53°33' E 009°55'0 0.0
2016-Aug-23 08:34N 53°33' E 009°55'0 0.0
2016-Aug-23 07:34N 53°33' E 009°55'0 0.0
2016-Aug-23 06:34N 53°33' E 009°55'0 0.0
2016-Aug-23 05:34N 53°33' E 009°55'0 0.0
2016-Aug-23 04:34N 53°33' E 009°55'0 0.0
2016-Aug-23 03:33N 53°33' E 009°55'0 0.0
2016-Aug-23 02:34N 53°33' E 009°55'0 0.0
2016-Aug-23 01:34N 53°33' E 009°55'0 0.0
2016-Aug-23 00:34N 53°33' E 009°55'2 1.7
2016-Aug-22 23:34N 53°31' E 009°57'1 0.8
2016-Aug-22 22:34N 53°32' E 009°58'2 1.8
2016-Aug-22 21:34N 53°33' E 009°55'0 0.0
2016-Aug-22 20:34N 53°33' E 009°55'0 0.0
2016-Aug-22 19:34N 53°33' E 009°55'0 0.0
2016-Aug-22 18:34N 53°33' E 009°55'0 0.0
2016-Aug-22 17:34N 53°33' E 009°55'0 0.0
2016-Aug-22 16:34N 53°33' E 009°55'3 2.7
2016-Aug-22 15:34N 53°30' E 009°56'4 4.2
2016-Aug-22 14:34N 53°33' E 009°51'2 2.5
2016-Aug-22 13:34N 53°33' E 009°55'0 0.0
2016-Aug-22 12:33N 53°33' E 009°55'0 0.0
2016-Aug-22 11:34N 53°33' E 009°55'0 0.0
2016-Aug-22 10:34N 53°33' E 009°55'0 0.0
2016-Aug-22 09:33N 53°33' E 009°55'0 0.0
2016-Aug-22 08:34N 53°33' E 009°55'0 0.0
2016-Aug-22 07:34N 53°33' E 009°55'0 0.0
2016-Aug-22 06:34N 53°33' E 009°55'0 0.0
2016-Aug-22 05:34N 53°33' E 009°55'0 0.0
2016-Aug-22 04:34N 53°33' E 009°55'0 0.0
2016-Aug-22 03:34N 53°33' E 009°55'0 0.0
2016-Aug-22 02:34N 53°33' E 009°55'0 0.0
2016-Aug-22 01:34N 53°33' E 009°55'0 0.0
2016-Aug-22 00:34N 53°33' E 009°55'0 0.0
2016-Aug-21 23:34N 53°33' E 009°55'0 0.0
2016-Aug-21 22:34N 53°33' E 009°55'0 0.0
2016-Aug-21 21:34N 53°33' E 009°55'0 0.0
2016-Aug-21 20:34N 53°33' E 009°55'0 0.0
2016-Aug-21 19:34N 53°33' E 009°55'0 0.0
2016-Aug-21 18:34N 53°33' E 009°55'0 0.0
2016-Aug-21 17:34N 53°33' E 009°55'0 0.0
2016-Aug-21 16:33N 53°33' E 009°55'0 0.0
2016-Aug-21 15:34N 53°33' E 009°55'0 0.0
2016-Aug-21 14:34N 53°33' E 009°55'0 0.0
2016-Aug-21 13:33N 53°33' E 009°55'0 0.0
2016-Aug-21 12:34N 53°33' E 009°55'0 0.0
2016-Aug-21 11:34N 53°33' E 009°55'0 0.4
2016-Aug-21 10:34N 53°32' E 009°55'2 2.4
2016-Aug-21 09:34N 53°33' E 009°51'3 2.8
2016-Aug-21 08:34N 53°33' E 009°55'0 0.0
2016-Aug-21 07:34N 53°33' E 009°55'0 0.0
2016-Aug-21 06:34N 53°33' E 009°55'0 0.0
2016-Aug-21 05:34N 53°33' E 009°55'0 0.0
2016-Aug-21 04:34N 53°33' E 009°55'0 0.0
2016-Aug-21 03:34N 53°33' E 009°55'0 0.0
2016-Aug-21 02:34N 53°33' E 009°55'0 0.0
2016-Aug-21 01:34N 53°33' E 009°55'0 0.0
2016-Aug-21 00:33N 53°33' E 009°55'0 0.0
2016-Aug-20 23:34N 53°33' E 009°55'1 0.8
2016-Aug-20 22:34N 53°32' E 009°55'3 2.7
2016-Aug-20 21:34N 53°33' E 009°51'3 2.6
2016-Aug-20 20:34N 53°33' E 009°55'0 0.0
2016-Aug-20 19:34N 53°33' E 009°55'0 0.0
2016-Aug-20 18:34N 53°33' E 009°55'0 0.0
2016-Aug-20 17:34N 53°33' E 009°55'0 0.0
2016-Aug-20 16:34N 53°33' E 009°55'0 0.0
2016-Aug-20 15:34N 53°33' E 009°55'0 0.3
2016-Aug-20 14:34N 53°32' E 009°56'0 0.3
2016-Aug-20 13:34N 53°33' E 009°55'0 0.0
2016-Aug-20 12:33N 53°33' E 009°55'0 0.0
2016-Aug-20 11:34N 53°33' E 009°55'0 0.0
2016-Aug-20 10:34N 53°33' E 009°55'0 0.0
2016-Aug-20 09:34N 53°33' E 009°55'0 0.0
2016-Aug-20 08:34N 53°33' E 009°55'0 0.0
2016-Aug-20 07:34N 53°33' E 009°55'0 0.0
2016-Aug-20 06:34N 53°33' E 009°55'0 0.0
2016-Aug-20 05:33N 53°33' E 009°55'0 0.0
2016-Aug-20 04:34N 53°33' E 009°55'1 0.8
2016-Aug-20 03:33N 53°32' E 009°55'1 0.8
2016-Aug-20 02:34N 53°33' E 009°55'0 0.0
2016-Aug-20 01:33N 53°33' E 009°55'0 0.0
2016-Aug-20 00:34N 53°33' E 009°55'0 0.0
2016-Aug-19 23:33N 53°33' E 009°55'0 0.0
2016-Aug-19 22:33N 53°33' E 009°55'0 0.0
2016-Aug-19 21:34N 53°33' E 009°55'0 0.0
2016-Aug-19 20:33N 53°33' E 009°55'0 0.0
2016-Aug-19 19:34N 53°33' E 009°55'  

Dump ship's entire track history